createdAt,value
2023-10-24T00:00:55.535Z,101198.75
2023-10-24T00:05:52.702Z,101194.50
2023-10-24T00:10:49.406Z,101187.28
2023-10-24T00:15:45.884Z,101183.00
2023-10-24T00:20:43.236Z,101173.75
2023-10-24T00:25:39.810Z,101169.44
2023-10-24T00:30:36.472Z,101156.59
2023-10-24T00:35:33.201Z,101162.53
2023-10-24T00:40:32.895Z,101162.44
2023-10-24T00:45:29.610Z,101142.84
2023-10-24T00:50:26.350Z,101142.75
2023-10-24T00:55:22.936Z,101146.44
2023-10-24T01:00:20.258Z,101143.00
2023-10-24T01:05:17.351Z,101142.34
2023-10-24T01:10:13.942Z,101158.69
2023-10-24T01:15:10.806Z,101154.81
2023-10-24T01:20:09.081Z,101160.91
2023-10-24T01:25:12.609Z,101138.63
2023-10-24T01:30:10.034Z,101167.00
2023-10-24T01:35:08.603Z,101164.72
2023-10-24T01:40:06.823Z,101171.31
2023-10-24T01:45:03.745Z,101171.69
2023-10-24T01:50:00.738Z,101174.13
2023-10-24T01:54:58.794Z,101175.16
2023-10-24T01:59:56.027Z,101169.25
2023-10-24T02:04:53.189Z,101167.94
2023-10-24T02:09:51.128Z,101162.91
2023-10-24T02:14:47.664Z,101172.09
2023-10-24T02:19:45.077Z,101168.88
2023-10-24T02:24:41.898Z,101172.31
2023-10-24T02:29:41.542Z,101171.16
2023-10-24T02:34:40.807Z,101167.66
2023-10-24T02:39:38.289Z,101176.97
2023-10-24T02:44:34.871Z,101184.16
2023-10-24T02:49:31.752Z,101183.59
2023-10-24T02:54:28.366Z,101174.09
2023-10-24T02:59:25.574Z,101186.91
2023-10-24T03:04:22.057Z,101181.75
2023-10-24T03:09:18.568Z,101188.03
2023-10-24T03:14:15.124Z,101189.34
2023-10-24T03:19:17.818Z,101181.59
2023-10-24T03:24:14.810Z,101192.59
2023-10-24T03:29:11.353Z,101194.78
2023-10-24T03:34:07.891Z,101205.44
2023-10-24T03:39:05.869Z,101197.38
2023-10-24T03:44:02.530Z,101203.88
2023-10-24T03:48:59.115Z,101202.69
2023-10-24T03:53:55.625Z,101211.78
2023-10-24T03:58:52.897Z,101205.53
2023-10-24T04:03:49.529Z,101207.00
2023-10-24T04:08:46.133Z,101216.56
2023-10-24T04:13:42.710Z,101220.25
2023-10-24T04:18:40.293Z,101223.41
2023-10-24T04:23:36.798Z,101228.72
2023-10-24T04:28:33.399Z,101223.25
2023-10-24T04:33:30.069Z,101228.53
2023-10-24T04:38:27.219Z,101232.75
2023-10-24T04:43:23.763Z,101232.00
2023-10-24T04:48:20.338Z,101237.50
2023-10-24T04:53:16.851Z,101244.63
2023-10-24T04:58:14.450Z,101256.81
2023-10-24T05:03:10.968Z,101259.28
2023-10-24T05:08:10.626Z,101269.91
2023-10-24T05:13:07.210Z,101271.78
2023-10-24T05:18:04.721Z,101280.84
2023-10-24T05:23:01.244Z,101287.16
2023-10-24T05:27:57.793Z,101309.69
2023-10-24T05:32:54.367Z,101318.16
2023-10-24T05:37:51.595Z,101336.88
2023-10-24T05:42:48.210Z,101341.16
2023-10-24T05:47:44.740Z,101326.63
2023-10-24T05:52:41.309Z,101322.19
2023-10-24T05:57:45.682Z,101316.28
2023-10-24T06:02:42.377Z,101320.16
2023-10-24T06:07:38.980Z,101319.81
2023-10-24T06:12:35.580Z,101323.75
2023-10-24T06:17:33.576Z,101325.66
2023-10-24T06:22:30.300Z,101337.78
2023-10-24T06:27:26.906Z,101339.50
2023-10-24T06:32:23.694Z,101334.59
2023-10-24T06:37:22.112Z,101339.41
2023-10-24T06:42:18.667Z,101347.13
2023-10-24T06:47:15.533Z,101342.34
2023-10-24T06:52:13.220Z,101337.59
2023-10-24T06:57:13.259Z,101339.44
2023-10-24T07:02:09.849Z,101330.94
2023-10-24T07:07:06.636Z,101328.91
2023-10-24T07:12:03.451Z,101335.09
2023-10-24T07:17:00.774Z,101333.63
2023-10-24T07:21:57.357Z,101324.72
2023-10-24T07:26:54.256Z,101320.63
2023-10-24T07:31:50.934Z,101320.34
2023-10-24T07:36:48.357Z,101313.13
2023-10-24T07:41:45.981Z,101311.22
2023-10-24T07:46:42.781Z,101319.59
2023-10-24T07:51:39.430Z,101321.84
2023-10-24T07:56:37.548Z,101297.94
2023-10-24T08:01:34.271Z,101284.00
2023-10-24T08:06:32.125Z,101284.56
2023-10-24T08:11:28.962Z,101267.09
2023-10-24T08:16:29.305Z,101275.22
2023-10-24T08:21:25.904Z,101273.59
2023-10-24T08:26:22.554Z,101272.34
2023-10-24T08:31:19.280Z,101269.19
2023-10-24T08:36:16.544Z,101267.72
2023-10-24T08:41:13.203Z,101276.00
2023-10-24T08:46:10.057Z,101270.50
2023-10-24T08:51:06.851Z,101261.84
2023-10-24T08:56:06.860Z,101259.03
2023-10-24T09:01:04.008Z,101242.03
2023-10-24T09:06:00.824Z,101246.28
2023-10-24T09:10:57.354Z,101244.78
2023-10-24T09:16:08.819Z,101236.94
2023-10-24T09:21:07.136Z,101234.31
2023-10-24T09:26:04.326Z,101230.16
2023-10-24T09:31:01.578Z,101222.75
2023-10-24T09:36:12.030Z,101218.72
2023-10-24T09:41:11.511Z,101215.09
2023-10-24T09:46:08.425Z,101203.84
2023-10-24T09:51:05.798Z,101201.41
2023-10-24T09:56:03.936Z,101198.38
2023-10-24T10:01:04.829Z,101187.41
2023-10-24T10:06:05.369Z,101165.53
2023-10-24T10:11:04.542Z,101162.47
2023-10-24T10:16:16.401Z,101150.56
2023-10-24T10:21:18.513Z,101153.72
2023-10-24T10:26:17.216Z,101151.91
2023-10-24T10:32:48.023Z,101145.13
2023-10-24T10:36:53.620Z,101144.03
2023-10-24T10:42:07.035Z,101121.13
2023-10-24T10:47:04.424Z,101126.44
2023-10-24T10:52:06.250Z,101132.44
2023-10-24T10:57:04.680Z,101123.03
2023-10-24T11:02:10.620Z,101116.88
2023-10-24T11:07:07.422Z,101110.84
2023-10-24T11:12:22.758Z,101096.41
2023-10-24T11:17:20.742Z,101104.00
2023-10-24T11:22:17.412Z,101098.16
2023-10-24T11:27:13.994Z,101089.22
2023-10-24T11:32:11.949Z,101082.19
2023-10-24T11:37:11.857Z,101081.00
2023-10-24T11:42:08.726Z,101075.06
2023-10-24T11:47:06.221Z,101062.59
2023-10-24T11:52:03.220Z,101056.09
2023-10-24T11:57:00.881Z,101050.75
2023-10-24T12:01:57.603Z,101044.56
2023-10-24T12:07:01.158Z,101047.81
2023-10-24T12:11:57.796Z,101034.69
2023-10-24T12:16:59.723Z,101039.63
2023-10-24T12:21:56.942Z,101022.50
2023-10-24T12:26:54.386Z,101021.94
2023-10-24T12:31:50.973Z,101012.06
2023-10-24T12:36:52.577Z,101009.66
2023-10-24T12:41:49.276Z,101006.13
2023-10-24T12:46:45.921Z,100995.97
2023-10-24T12:51:43.102Z,100992.41
2023-10-24T12:56:40.330Z,100998.94
2023-10-24T13:01:37.004Z,100989.88
2023-10-24T13:06:35.211Z,100973.94
2023-10-24T13:11:32.032Z,100967.97
2023-10-24T13:16:29.354Z,100958.94
2023-10-24T13:21:25.891Z,100958.09
2023-10-24T13:26:22.417Z,100944.41
2023-10-24T13:31:19.699Z,100946.25
2023-10-24T13:36:21.043Z,100952.47
2023-10-24T13:41:19.814Z,100952.47
2023-10-24T13:46:18.906Z,100955.41
2023-10-24T13:51:20.140Z,100950.91
2023-10-24T13:56:16.890Z,100947.53
2023-10-24T14:01:30.991Z,100941.31
2023-10-24T14:06:28.978Z,100935.78
2023-10-24T14:11:25.496Z,100924.47
2023-10-24T14:16:22.186Z,100922.94
2023-10-24T14:21:19.331Z,100922.34
2023-10-24T14:26:16.686Z,100919.84
2023-10-24T14:31:13.452Z,100912.03
2023-10-24T14:36:14.250Z,100909.53
2023-10-24T14:41:10.918Z,100905.13
2023-10-24T14:46:11.470Z,100909.78
2023-10-24T14:51:08.137Z,100907.38
2023-10-24T14:56:05.033Z,100893.25
2023-10-24T15:01:02.880Z,100883.53
2023-10-24T15:06:00.056Z,100879.16
2023-10-24T15:10:56.625Z,100880.44
2023-10-24T15:15:53.545Z,100870.63
2023-10-24T15:20:50.054Z,100870.34
2023-10-24T15:25:47.337Z,100864.84
2023-10-24T15:30:43.902Z,100862.84
2023-10-24T15:35:41.521Z,100844.38
2023-10-24T15:40:38.213Z,100869.28
2023-10-24T15:45:35.544Z,100876.59
2023-10-24T15:50:35.194Z,100879.28
2023-10-24T15:55:31.715Z,100873.31
2023-10-24T16:00:28.889Z,100869.91
2023-10-24T16:05:26.139Z,100879.66
2023-10-24T16:10:22.867Z,100881.13
2023-10-24T16:15:19.511Z,100885.88
2023-10-24T16:20:16.143Z,100888.00
2023-10-24T16:25:13.378Z,100888.28
2023-10-24T16:30:10.423Z,100877.88
2023-10-24T16:35:07.636Z,100880.06
2023-10-24T16:40:04.730Z,100874.13
2023-10-24T16:45:02.033Z,100873.16
2023-10-24T16:49:58.886Z,100864.56
2023-10-24T16:54:55.484Z,100859.47
2023-10-24T16:59:52.120Z,100853.56
2023-10-24T17:04:50.918Z,100846.94
2023-10-24T17:09:47.476Z,100841.06
2023-10-24T17:14:50.381Z,100841.59
2023-10-24T17:19:46.992Z,100840.63
2023-10-24T17:24:44.550Z,100835.91
2023-10-24T17:29:42.446Z,100828.31
2023-10-24T17:34:39.240Z,100834.00
2023-10-24T17:39:36.725Z,100812.38
2023-10-24T17:44:34.041Z,100827.28
2023-10-24T17:49:30.797Z,100823.97
2023-10-24T17:54:27.627Z,100824.34
2023-10-24T17:59:24.274Z,100822.31
2023-10-24T18:04:22.603Z,100830.66
2023-10-24T18:09:19.113Z,100813.53
2023-10-24T18:14:15.680Z,100808.41
2023-10-24T18:19:12.503Z,100797.41
2023-10-24T18:24:10.090Z,100792.22
2023-10-24T18:29:06.644Z,100797.28
2023-10-24T18:34:03.213Z,100779.59
2023-10-24T18:39:03.109Z,100770.69
2023-10-24T18:44:00.435Z,100771.63
2023-10-24T18:48:56.950Z,100757.78
2023-10-24T18:53:53.502Z,100750.56
2023-10-24T18:58:50.053Z,100764.56
2023-10-24T19:03:47.408Z,100770.97
2023-10-24T19:08:44.308Z,100784.59
2023-10-24T19:13:41.070Z,100785.97
2023-10-24T19:18:37.877Z,100783.28
2023-10-24T19:23:35.467Z,100778.16
2023-10-24T19:28:32.313Z,100770.53
2023-10-24T19:33:29.243Z,100768.81
2023-10-24T19:38:26.386Z,100766.28
2023-10-24T19:43:24.115Z,100751.72
2023-10-24T19:48:21.199Z,100739.34
2023-10-24T19:53:18.199Z,100725.28
2023-10-24T19:58:15.732Z,100719.81
2023-10-24T20:03:13.459Z,100708.81
2023-10-24T20:08:13.922Z,100709.59
2023-10-24T20:13:11.703Z,100691.84
2023-10-24T20:18:10.005Z,100684.13
2023-10-24T20:23:07.982Z,100665.59
2023-10-24T20:28:04.908Z,100658.09
2023-10-24T20:33:01.546Z,100661.53
2023-10-24T20:37:58.113Z,100644.50
2023-10-24T20:42:55.443Z,100642.25
2023-10-24T20:47:52.068Z,100629.13
2023-10-24T20:52:48.728Z,100618.75
2023-10-24T20:57:45.654Z,100600.75
2023-10-24T21:02:43.714Z,100588.16
2023-10-24T21:07:41.858Z,100574.50
2023-10-24T21:12:38.569Z,100561.69
2023-10-24T21:17:35.266Z,100559.97
2023-10-24T21:22:32.460Z,100549.81
2023-10-24T21:27:29.520Z,100550.56
2023-10-24T21:32:26.138Z,100556.78
2023-10-24T21:37:22.777Z,100546.44
2023-10-24T21:42:19.999Z,100537.22
2023-10-24T21:47:16.628Z,100520.69
2023-10-24T21:52:13.193Z,100521.34
2023-10-24T21:57:09.933Z,100500.81
2023-10-24T22:02:07.199Z,100494.34
2023-10-24T22:07:03.840Z,100480.31
2023-10-24T22:12:00.516Z,100478.19
2023-10-24T22:16:57.080Z,100491.09
2023-10-24T22:21:54.406Z,100475.47
2023-10-24T22:26:51.105Z,100490.06
2023-10-24T22:31:47.634Z,100489.38
2023-10-24T22:36:44.275Z,100472.84
2023-10-24T22:41:41.507Z,100463.66
2023-10-24T22:46:38.200Z,100438.38
2023-10-24T22:51:34.972Z,100451.50
2023-10-24T22:56:31.645Z,100456.31
2023-10-24T23:01:28.955Z,100448.16
2023-10-24T23:06:25.496Z,100433.88
2023-10-24T23:11:22.068Z,100455.63
2023-10-24T23:16:18.680Z,100446.63
2023-10-24T23:21:16.130Z,100445.81
2023-10-24T23:26:12.707Z,100436.53
2023-10-24T23:31:09.322Z,100430.31
2023-10-24T23:36:06.155Z,100436.03
2023-10-24T23:41:03.418Z,100431.69
2023-10-24T23:46:00.016Z,100434.91
2023-10-24T23:50:56.530Z,100419.72
2023-10-24T23:55:53.124Z,100413.72
